sensor_id;sensor_type;location;lat;lon;timestamp;P1;durP1;ratioP1;P2;durP2;ratioP2
22922;SDS011;11627;51.322;22.816;2022-10-31T00:02:19;26.05;;;15.13;;
22922;SDS011;11627;51.322;22.816;2022-10-31T00:04:44;27.27;;;15.68;;
22922;SDS011;11627;51.322;22.816;2022-10-31T00:07:10;24.90;;;15.40;;
22922;SDS011;11627;51.322;22.816;2022-10-31T00:09:35;30.75;;;17.83;;
22922;SDS011;11627;51.322;22.816;2022-10-31T00:12:01;31.33;;;17.98;;
22922;SDS011;11627;51.322;22.816;2022-10-31T00:14:27;28.98;;;17.50;;
22922;SDS011;11627;51.322;22.816;2022-10-31T00:16:53;30.95;;;17.30;;
22922;SDS011;11627;51.322;22.816;2022-10-31T00:19:18;31.27;;;17.65;;
22922;SDS011;11627;51.322;22.816;2022-10-31T00:21:44;28.52;;;17.17;;
22922;SDS011;11627;51.322;22.816;2022-10-31T00:24:10;29.08;;;17.60;;
22922;SDS011;11627;51.322;22.816;2022-10-31T00:26:35;28.80;;;18.00;;
22922;SDS011;11627;51.322;22.816;2022-10-31T00:29:01;27.88;;;17.40;;
22922;SDS011;11627;51.322;22.816;2022-10-31T00:31:27;31.88;;;17.35;;
22922;SDS011;11627;51.322;22.816;2022-10-31T00:33:53;31.02;;;17.50;;
22922;SDS011;11627;51.322;22.816;2022-10-31T00:36:19;34.55;;;17.80;;
22922;SDS011;11627;51.322;22.816;2022-10-31T00:38:47;29.17;;;17.33;;
22922;SDS011;11627;51.322;22.816;2022-10-31T00:41:13;30.55;;;17.42;;
22922;SDS011;11627;51.322;22.816;2022-10-31T00:43:43;30.02;;;16.60;;
22922;SDS011;11627;51.322;22.816;2022-10-31T00:46:09;35.78;;;16.88;;
22922;SDS011;11627;51.322;22.816;2022-10-31T00:48:35;30.23;;;16.98;;
22922;SDS011;11627;51.322;22.816;2022-10-31T00:51:01;28.95;;;16.90;;
22922;SDS011;11627;51.322;22.816;2022-10-31T00:53:27;28.15;;;17.02;;
22922;SDS011;11627;51.322;22.816;2022-10-31T00:55:52;27.67;;;16.73;;
22922;SDS011;11627;51.322;22.816;2022-10-31T00:58:18;28.00;;;16.40;;
22922;SDS011;11627;51.322;22.816;2022-10-31T01:00:43;30.63;;;17.00;;
22922;SDS011;11627;51.322;22.816;2022-10-31T01:03:09;24.70;;;16.13;;
22922;SDS011;11627;51.322;22.816;2022-10-31T01:05:34;29.08;;;17.23;;
22922;SDS011;11627;51.322;22.816;2022-10-31T01:08:00;28.38;;;17.23;;
22922;SDS011;11627;51.322;22.816;2022-10-31T01:10:25;29.48;;;16.48;;
22922;SDS011;11627;51.322;22.816;2022-10-31T01:12:51;28.13;;;16.80;;
22922;SDS011;11627;51.322;22.816;2022-10-31T01:15:19;26.98;;;16.92;;
22922;SDS011;11627;51.322;22.816;2022-10-31T01:17:46;26.00;;;15.60;;
22922;SDS011;11627;51.322;22.816;2022-10-31T01:20:13;27.48;;;17.30;;
22922;SDS011;11627;51.322;22.816;2022-10-31T01:22:39;30.70;;;17.23;;
22922;SDS011;11627;51.322;22.816;2022-10-31T01:25:05;27.65;;;16.63;;
22922;SDS011;11627;51.322;22.816;2022-10-31T01:27:32;30.27;;;15.43;;
22922;SDS011;11627;51.322;22.816;2022-10-31T01:29:58;26.25;;;16.25;;
22922;SDS011;11627;51.322;22.816;2022-10-31T01:32:24;26.98;;;16.50;;
22922;SDS011;11627;51.322;22.816;2022-10-31T01:34:49;29.65;;;17.20;;
22922;SDS011;11627;51.322;22.816;2022-10-31T01:37:15;26.30;;;15.25;;
22922;SDS011;11627;51.322;22.816;2022-10-31T01:39:40;25.63;;;15.65;;
22922;SDS011;11627;51.322;22.816;2022-10-31T01:42:06;27.17;;;15.77;;
22922;SDS011;11627;51.322;22.816;2022-10-31T01:47:16;25.73;;;15.07;;
22922;SDS011;11627;51.322;22.816;2022-10-31T01:49:51;23.20;;;15.18;;
22922;SDS011;11627;51.322;22.816;2022-10-31T01:52:30;26.95;;;15.35;;
22922;SDS011;11627;51.322;22.816;2022-10-31T01:55:03;24.35;;;14.63;;
22922;SDS011;11627;51.322;22.816;2022-10-31T01:57:31;22.00;;;13.75;;
22922;SDS011;11627;51.322;22.816;2022-10-31T02:00:02;22.13;;;13.82;;
22922;SDS011;11627;51.322;22.816;2022-10-31T02:02:31;23.08;;;14.13;;
22922;SDS011;11627;51.322;22.816;2022-10-31T02:04:57;24.45;;;15.05;;
22922;SDS011;11627;51.322;22.816;2022-10-31T02:07:27;20.25;;;13.05;;
22922;SDS011;11627;51.322;22.816;2022-10-31T02:09:59;19.35;;;12.35;;
22922;SDS011;11627;51.322;22.816;2022-10-31T02:12:26;22.20;;;13.00;;
22922;SDS011;11627;51.322;22.816;2022-10-31T02:14:53;22.92;;;13.68;;
22922;SDS011;11627;51.322;22.816;2022-10-31T02:17:19;22.40;;;13.88;;
22922;SDS011;11627;51.322;22.816;2022-10-31T02:25:49;17.65;;;12.15;;
22922;SDS011;11627;51.322;22.816;2022-10-31T02:28:49;18.23;;;11.93;;
22922;SDS011;11627;51.322;22.816;2022-10-31T02:31:33;16.77;;;11.38;;
22922;SDS011;11627;51.322;22.816;2022-10-31T02:39:56;20.40;;;11.48;;
22922;SDS011;11627;51.322;22.816;2022-10-31T02:45:14;18.75;;;11.55;;
22922;SDS011;11627;51.322;22.816;2022-10-31T02:47:58;20.83;;;11.25;;
22922;SDS011;11627;51.322;22.816;2022-10-31T02:50:30;21.75;;;11.57;;
22922;SDS011;11627;51.322;22.816;2022-10-31T02:52:59;18.05;;;11.05;;
22922;SDS011;11627;51.322;22.816;2022-10-31T02:57:52;16.83;;;10.65;;
22922;SDS011;11627;51.322;22.816;2022-10-31T03:00:21;18.40;;;12.32;;
22922;SDS011;11627;51.322;22.816;2022-10-31T03:08:30;19.67;;;12.18;;
22922;SDS011;11627;51.322;22.816;2022-10-31T03:11:00;21.88;;;12.38;;
22922;SDS011;11627;51.322;22.816;2022-10-31T03:16:14;21.23;;;11.93;;
22922;SDS011;11627;51.322;22.816;2022-10-31T03:18:48;23.13;;;12.88;;
22922;SDS011;11627;51.322;22.816;2022-10-31T03:21:26;21.45;;;13.63;;
22922;SDS011;11627;51.322;22.816;2022-10-31T03:24:00;21.58;;;13.63;;
22922;SDS011;11627;51.322;22.816;2022-10-31T03:26:26;19.98;;;13.27;;
22922;SDS011;11627;51.322;22.816;2022-10-31T03:28:54;23.02;;;13.93;;
22922;SDS011;11627;51.322;22.816;2022-10-31T03:31:30;21.13;;;14.63;;
22922;SDS011;11627;51.322;22.816;2022-10-31T03:34:00;21.70;;;13.15;;
22922;SDS011;11627;51.322;22.816;2022-10-31T03:36:28;19.35;;;12.82;;
22922;SDS011;11627;51.322;22.816;2022-10-31T03:38:57;20.92;;;13.40;;
22922;SDS011;11627;51.322;22.816;2022-10-31T03:41:26;20.33;;;12.82;;
22922;SDS011;11627;51.322;22.816;2022-10-31T03:44:07;20.92;;;12.45;;
22922;SDS011;11627;51.322;22.816;2022-10-31T03:46:36;17.48;;;11.13;;
22922;SDS011;11627;51.322;22.816;2022-10-31T03:49:02;15.15;;;9.63;;
22922;SDS011;11627;51.322;22.816;2022-10-31T03:51:38;18.30;;;11.43;;
22922;SDS011;11627;51.322;22.816;2022-10-31T03:56:50;17.50;;;11.70;;
22922;SDS011;11627;51.322;22.816;2022-10-31T03:59:35;16.70;;;11.13;;
22922;SDS011;11627;51.322;22.816;2022-10-31T04:02:07;16.55;;;10.85;;
22922;SDS011;11627;51.322;22.816;2022-10-31T04:04:39;16.92;;;11.07;;
22922;SDS011;11627;51.322;22.816;2022-10-31T04:07:10;15.00;;;10.77;;
22922;SDS011;11627;51.322;22.816;2022-10-31T04:09:38;16.95;;;11.63;;
22922;SDS011;11627;51.322;22.816;2022-10-31T04:12:06;21.23;;;12.77;;
22922;SDS011;11627;51.322;22.816;2022-10-31T04:14:37;20.42;;;12.52;;
22922;SDS011;11627;51.322;22.816;2022-10-31T04:17:05;21.27;;;12.35;;
22922;SDS011;11627;51.322;22.816;2022-10-31T04:19:34;21.10;;;12.27;;
22922;SDS011;11627;51.322;22.816;2022-10-31T04:21:59;19.55;;;12.20;;
22922;SDS011;11627;51.322;22.816;2022-10-31T04:24:25;18.25;;;11.75;;
22922;SDS011;11627;51.322;22.816;2022-10-31T04:26:50;17.63;;;11.48;;
22922;SDS011;11627;51.322;22.816;2022-10-31T04:29:16;19.25;;;12.80;;
22922;SDS011;11627;51.322;22.816;2022-10-31T04:31:42;19.38;;;13.02;;
22922;SDS011;11627;51.322;22.816;2022-10-31T04:34:07;15.63;;;11.63;;
22922;SDS011;11627;51.322;22.816;2022-10-31T04:36:33;20.00;;;12.43;;
22922;SDS011;11627;51.322;22.816;2022-10-31T04:38:58;19.17;;;11.90;;
22922;SDS011;11627;51.322;22.816;2022-10-31T04:41:24;19.02;;;12.57;;
22922;SDS011;11627;51.322;22.816;2022-10-31T04:43:50;21.65;;;12.15;;
22922;SDS011;11627;51.322;22.816;2022-10-31T04:46:15;19.90;;;11.02;;
22922;SDS011;11627;51.322;22.816;2022-10-31T04:48:41;21.38;;;12.98;;
22922;SDS011;11627;51.322;22.816;2022-10-31T04:51:08;21.95;;;13.07;;
22922;SDS011;11627;51.322;22.816;2022-10-31T04:53:33;20.67;;;12.95;;
22922;SDS011;11627;51.322;22.816;2022-10-31T04:55:59;21.52;;;12.55;;
22922;SDS011;11627;51.322;22.816;2022-10-31T04:58:27;19.80;;;12.88;;
22922;SDS011;11627;51.322;22.816;2022-10-31T05:00:53;23.88;;;13.27;;
22922;SDS011;11627;51.322;22.816;2022-10-31T05:03:20;18.63;;;12.88;;
22922;SDS011;11627;51.322;22.816;2022-10-31T05:05:45;18.83;;;12.10;;
22922;SDS011;11627;51.322;22.816;2022-10-31T05:08:11;22.13;;;12.57;;
22922;SDS011;11627;51.322;22.816;2022-10-31T05:10:36;19.30;;;12.40;;
22922;SDS011;11627;51.322;22.816;2022-10-31T05:13:04;24.45;;;14.23;;
22922;SDS011;11627;51.322;22.816;2022-10-31T05:15:30;26.42;;;13.70;;
22922;SDS011;11627;51.322;22.816;2022-10-31T05:17:56;27.65;;;13.18;;
22922;SDS011;11627;51.322;22.816;2022-10-31T05:20:22;25.08;;;13.10;;
22922;SDS011;11627;51.322;22.816;2022-10-31T05:22:51;20.33;;;11.68;;
22922;SDS011;11627;51.322;22.816;2022-10-31T05:25:18;17.52;;;10.88;;
22922;SDS011;11627;51.322;22.816;2022-10-31T05:27:46;23.20;;;12.40;;
22922;SDS011;11627;51.322;22.816;2022-10-31T05:30:14;20.55;;;11.77;;
22922;SDS011;11627;51.322;22.816;2022-10-31T05:32:42;19.38;;;11.32;;
22922;SDS011;11627;51.322;22.816;2022-10-31T05:35:10;23.63;;;12.88;;
22922;SDS011;11627;51.322;22.816;2022-10-31T05:37:37;21.80;;;12.85;;
22922;SDS011;11627;51.322;22.816;2022-10-31T05:40:03;24.42;;;12.68;;
22922;SDS011;11627;51.322;22.816;2022-10-31T05:42:30;22.00;;;12.68;;
22922;SDS011;11627;51.322;22.816;2022-10-31T05:44:56;23.65;;;13.98;;
22922;SDS011;11627;51.322;22.816;2022-10-31T05:47:22;23.92;;;11.70;;
22922;SDS011;11627;51.322;22.816;2022-10-31T05:49:48;20.30;;;12.13;;
22922;SDS011;11627;51.322;22.816;2022-10-31T05:52:13;22.58;;;13.10;;
22922;SDS011;11627;51.322;22.816;2022-10-31T05:54:39;16.13;;;10.98;;
22922;SDS011;11627;51.322;22.816;2022-10-31T05:57:05;15.20;;;10.48;;
22922;SDS011;11627;51.322;22.816;2022-10-31T05:59:30;30.13;;;13.43;;
22922;SDS011;11627;51.322;22.816;2022-10-31T06:01:56;33.92;;;16.80;;
22922;SDS011;11627;51.322;22.816;2022-10-31T06:04:21;39.10;;;18.33;;
22922;SDS011;11627;51.322;22.816;2022-10-31T06:06:47;48.38;;;22.50;;
22922;SDS011;11627;51.322;22.816;2022-10-31T06:09:13;53.00;;;24.30;;
22922;SDS011;11627;51.322;22.816;2022-10-31T06:11:40;53.28;;;26.20;;
22922;SDS011;11627;51.322;22.816;2022-10-31T06:14:05;54.90;;;28.77;;
22922;SDS011;11627;51.322;22.816;2022-10-31T06:16:31;35.70;;;18.98;;
22922;SDS011;11627;51.322;22.816;2022-10-31T06:18:56;37.90;;;20.98;;
22922;SDS011;11627;51.322;22.816;2022-10-31T06:21:22;37.67;;;19.83;;
22922;SDS011;11627;51.322;22.816;2022-10-31T06:23:48;29.10;;;16.30;;
22922;SDS011;11627;51.322;22.816;2022-10-31T06:26:13;25.70;;;16.45;;
22922;SDS011;11627;51.322;22.816;2022-10-31T06:28:39;26.90;;;15.82;;
22922;SDS011;11627;51.322;22.816;2022-10-31T06:31:04;32.63;;;17.63;;
22922;SDS011;11627;51.322;22.816;2022-10-31T06:33:30;29.83;;;16.85;;
22922;SDS011;11627;51.322;22.816;2022-10-31T06:35:55;29.15;;;17.55;;
22922;SDS011;11627;51.322;22.816;2022-10-31T06:38:21;29.60;;;17.75;;
22922;SDS011;11627;51.322;22.816;2022-10-31T06:40:47;28.48;;;16.95;;
22922;SDS011;11627;51.322;22.816;2022-10-31T06:43:12;26.27;;;17.02;;
22922;SDS011;11627;51.322;22.816;2022-10-31T06:45:39;25.77;;;15.27;;
22922;SDS011;11627;51.322;22.816;2022-10-31T06:48:07;25.35;;;14.68;;
22922;SDS011;11627;51.322;22.816;2022-10-31T06:50:33;23.88;;;14.82;;
22922;SDS011;11627;51.322;22.816;2022-10-31T06:52:58;21.80;;;13.52;;
22922;SDS011;11627;51.322;22.816;2022-10-31T06:55:24;21.80;;;14.07;;
22922;SDS011;11627;51.322;22.816;2022-10-31T06:57:54;21.95;;;14.13;;
22922;SDS011;11627;51.322;22.816;2022-10-31T07:00:23;19.35;;;12.55;;
22922;SDS011;11627;51.322;22.816;2022-10-31T07:02:53;18.27;;;11.88;;
22922;SDS011;11627;51.322;22.816;2022-10-31T07:05:23;20.90;;;12.00;;
22922;SDS011;11627;51.322;22.816;2022-10-31T07:07:55;22.23;;;13.15;;
22922;SDS011;11627;51.322;22.816;2022-10-31T07:10:23;20.20;;;12.80;;
22922;SDS011;11627;51.322;22.816;2022-10-31T07:12:54;17.17;;;12.20;;
22922;SDS011;11627;51.322;22.816;2022-10-31T07:15:22;18.08;;;12.60;;
22922;SDS011;11627;51.322;22.816;2022-10-31T07:17:48;16.88;;;11.25;;
22922;SDS011;11627;51.322;22.816;2022-10-31T07:20:14;17.05;;;11.75;;
22922;SDS011;11627;51.322;22.816;2022-10-31T07:22:40;18.13;;;12.80;;
22922;SDS011;11627;51.322;22.816;2022-10-31T07:25:06;21.80;;;13.77;;
22922;SDS011;11627;51.322;22.816;2022-10-31T07:27:35;23.67;;;13.65;;
22922;SDS011;11627;51.322;22.816;2022-10-31T07:30:02;25.48;;;15.75;;
22922;SDS011;11627;51.322;22.816;2022-10-31T07:32:37;32.90;;;18.92;;
22922;SDS011;11627;51.322;22.816;2022-10-31T07:35:10;31.15;;;18.30;;
22922;SDS011;11627;51.322;22.816;2022-10-31T07:37:38;29.73;;;16.20;;
22922;SDS011;11627;51.322;22.816;2022-10-31T07:40:04;26.90;;;16.40;;
22922;SDS011;11627;51.322;22.816;2022-10-31T07:42:38;21.67;;;14.02;;
22922;SDS011;11627;51.322;22.816;2022-10-31T07:45:05;21.65;;;13.88;;
22922;SDS011;11627;51.322;22.816;2022-10-31T07:47:43;21.98;;;13.27;;
22922;SDS011;11627;51.322;22.816;2022-10-31T07:50:14;23.25;;;13.30;;
22922;SDS011;11627;51.322;22.816;2022-10-31T07:52:48;21.50;;;13.77;;
22922;SDS011;11627;51.322;22.816;2022-10-31T07:55:14;23.75;;;13.95;;
22922;SDS011;11627;51.322;22.816;2022-10-31T07:57:41;23.23;;;14.07;;
22922;SDS011;11627;51.322;22.816;2022-10-31T08:00:09;26.15;;;15.18;;
22922;SDS011;11627;51.322;22.816;2022-10-31T08:02:35;23.73;;;14.32;;
22922;SDS011;11627;51.322;22.816;2022-10-31T08:05:02;26.17;;;15.23;;
22922;SDS011;11627;51.322;22.816;2022-10-31T08:07:28;28.15;;;15.90;;
22922;SDS011;11627;51.322;22.816;2022-10-31T08:10:00;31.73;;;16.00;;
22922;SDS011;11627;51.322;22.816;2022-10-31T08:12:26;29.33;;;15.75;;
22922;SDS011;11627;51.322;22.816;2022-10-31T08:14:52;28.40;;;15.73;;
22922;SDS011;11627;51.322;22.816;2022-10-31T08:17:19;28.48;;;14.85;;
22922;SDS011;11627;51.322;22.816;2022-10-31T08:19:46;26.80;;;15.13;;
22922;SDS011;11627;51.322;22.816;2022-10-31T08:22:13;27.00;;;14.35;;
22922;SDS011;11627;51.322;22.816;2022-10-31T08:24:39;25.48;;;14.65;;
22922;SDS011;11627;51.322;22.816;2022-10-31T08:27:07;25.67;;;13.98;;
22922;SDS011;11627;51.322;22.816;2022-10-31T08:29:33;25.77;;;12.98;;
22922;SDS011;11627;51.322;22.816;2022-10-31T08:31:59;26.10;;;14.48;;
22922;SDS011;11627;51.322;22.816;2022-10-31T08:34:26;31.48;;;15.52;;
22922;SDS011;11627;51.322;22.816;2022-10-31T08:36:55;30.05;;;15.57;;
22922;SDS011;11627;51.322;22.816;2022-10-31T08:39:24;32.63;;;16.60;;
22922;SDS011;11627;51.322;22.816;2022-10-31T08:41:50;32.75;;;16.33;;
22922;SDS011;11627;51.322;22.816;2022-10-31T08:44:16;35.75;;;17.02;;
22922;SDS011;11627;51.322;22.816;2022-10-31T08:46:43;32.10;;;17.08;;
22922;SDS011;11627;51.322;22.816;2022-10-31T08:49:08;29.95;;;16.60;;
22922;SDS011;11627;51.322;22.816;2022-10-31T08:51:34;31.02;;;17.67;;
22922;SDS011;11627;51.322;22.816;2022-10-31T08:54:01;33.30;;;18.13;;
22922;SDS011;11627;51.322;22.816;2022-10-31T08:56:26;36.58;;;18.48;;
22922;SDS011;11627;51.322;22.816;2022-10-31T08:58:52;32.58;;;18.60;;
22922;SDS011;11627;51.322;22.816;2022-10-31T09:01:19;31.08;;;18.48;;
22922;SDS011;11627;51.322;22.816;2022-10-31T09:03:46;33.95;;;19.00;;
22922;SDS011;11627;51.322;22.816;2022-10-31T09:06:12;29.02;;;17.38;;
22922;SDS011;11627;51.322;22.816;2022-10-31T09:08:37;30.88;;;17.17;;
22922;SDS011;11627;51.322;22.816;2022-10-31T09:11:04;26.48;;;16.75;;
22922;SDS011;11627;51.322;22.816;2022-10-31T09:13:31;30.83;;;18.00;;
22922;SDS011;11627;51.322;22.816;2022-10-31T09:15:57;34.22;;;19.38;;
22922;SDS011;11627;51.322;22.816;2022-10-31T09:18:43;39.40;;;20.55;;
22922;SDS011;11627;51.322;22.816;2022-10-31T09:21:10;31.85;;;18.00;;
22922;SDS011;11627;51.322;22.816;2022-10-31T09:23:36;27.65;;;16.25;;
22922;SDS011;11627;51.322;22.816;2022-10-31T09:26:02;24.52;;;14.63;;
22922;SDS011;11627;51.322;22.816;2022-10-31T09:28:28;28.27;;;15.63;;
22922;SDS011;11627;51.322;22.816;2022-10-31T09:30:54;28.02;;;14.95;;
22922;SDS011;11627;51.322;22.816;2022-10-31T09:33:19;25.60;;;14.90;;
22922;SDS011;11627;51.322;22.816;2022-10-31T09:35:46;25.88;;;15.10;;
22922;SDS011;11627;51.322;22.816;2022-10-31T09:38:13;25.02;;;15.07;;
22922;SDS011;11627;51.322;22.816;2022-10-31T09:40:41;24.48;;;14.43;;
22922;SDS011;11627;51.322;22.816;2022-10-31T09:43:46;26.05;;;16.40;;
22922;SDS011;11627;51.322;22.816;2022-10-31T09:46:34;22.98;;;14.70;;
22922;SDS011;11627;51.322;22.816;2022-10-31T09:52:20;26.30;;;16.15;;
22922;SDS011;11627;51.322;22.816;2022-10-31T09:57:34;27.15;;;15.93;;
22922;SDS011;11627;51.322;22.816;2022-10-31T10:00:05;24.25;;;15.27;;
22922;SDS011;11627;51.322;22.816;2022-10-31T10:08:49;23.58;;;13.80;;
22922;SDS011;11627;51.322;22.816;2022-10-31T10:14:12;24.10;;;14.88;;
22922;SDS011;11627;51.322;22.816;2022-10-31T10:16:56;24.58;;;15.48;;
22922;SDS011;11627;51.322;22.816;2022-10-31T10:25:37;29.00;;;18.30;;
22922;SDS011;11627;51.322;22.816;2022-10-31T10:28:13;30.38;;;18.83;;
22922;SDS011;11627;51.322;22.816;2022-10-31T10:31:03;31.88;;;19.60;;
22922;SDS011;11627;51.322;22.816;2022-10-31T10:33:35;32.35;;;19.73;;
22922;SDS011;11627;51.322;22.816;2022-10-31T10:36:26;35.90;;;20.58;;
22922;SDS011;11627;51.322;22.816;2022-10-31T10:39:30;36.00;;;20.45;;
22922;SDS011;11627;51.322;22.816;2022-10-31T10:42:07;30.92;;;19.27;;
22922;SDS011;11627;51.322;22.816;2022-10-31T10:44:58;29.85;;;18.80;;
22922;SDS011;11627;51.322;22.816;2022-10-31T10:47:52;30.05;;;18.15;;
22922;SDS011;11627;51.322;22.816;2022-10-31T10:50:35;26.40;;;17.60;;
22922;SDS011;11627;51.322;22.816;2022-10-31T10:53:21;32.08;;;19.10;;
22922;SDS011;11627;51.322;22.816;2022-10-31T10:59:30;29.73;;;18.23;;
22922;SDS011;11627;51.322;22.816;2022-10-31T11:01:56;33.70;;;18.98;;
22922;SDS011;11627;51.322;22.816;2022-10-31T11:07:06;36.97;;;21.98;;
22922;SDS011;11627;51.322;22.816;2022-10-31T11:09:35;33.08;;;19.45;;
22922;SDS011;11627;51.322;22.816;2022-10-31T11:14:52;32.65;;;20.15;;
22922;SDS011;11627;51.322;22.816;2022-10-31T11:17:48;33.50;;;21.45;;
22922;SDS011;11627;51.322;22.816;2022-10-31T11:22:48;38.72;;;22.35;;
22922;SDS011;11627;51.322;22.816;2022-10-31T11:25:23;38.42;;;22.02;;
22922;SDS011;11627;51.322;22.816;2022-10-31T11:28:03;36.78;;;23.27;;
22922;SDS011;11627;51.322;22.816;2022-10-31T11:30:35;34.20;;;21.38;;
22922;SDS011;11627;51.322;22.816;2022-10-31T11:33:17;36.03;;;21.25;;
22922;SDS011;11627;51.322;22.816;2022-10-31T11:35:57;30.42;;;19.05;;
22922;SDS011;11627;51.322;22.816;2022-10-31T11:38:31;39.78;;;20.95;;
22922;SDS011;11627;51.322;22.816;2022-10-31T11:43:49;33.08;;;20.40;;
22922;SDS011;11627;51.322;22.816;2022-10-31T11:46:19;36.53;;;21.40;;
22922;SDS011;11627;51.322;22.816;2022-10-31T11:48:50;35.70;;;22.20;;
22922;SDS011;11627;51.322;22.816;2022-10-31T11:51:23;33.22;;;21.25;;
22922;SDS011;11627;51.322;22.816;2022-10-31T11:53:52;32.80;;;19.85;;
22922;SDS011;11627;51.322;22.816;2022-10-31T11:56:21;35.42;;;21.33;;
22922;SDS011;11627;51.322;22.816;2022-10-31T11:58:58;36.38;;;20.13;;
22922;SDS011;11627;51.322;22.816;2022-10-31T12:01:27;38.38;;;22.65;;
22922;SDS011;11627;51.322;22.816;2022-10-31T12:04:09;47.28;;;24.23;;
22922;SDS011;11627;51.322;22.816;2022-10-31T12:06:36;47.90;;;25.52;;
22922;SDS011;11627;51.322;22.816;2022-10-31T12:09:18;43.25;;;26.75;;
22922;SDS011;11627;51.322;22.816;2022-10-31T12:12:08;33.58;;;21.30;;
22922;SDS011;11627;51.322;22.816;2022-10-31T12:17:18;28.73;;;19.65;;
22922;SDS011;11627;51.322;22.816;2022-10-31T12:22:57;38.00;;;23.80;;
22922;SDS011;11627;51.322;22.816;2022-10-31T12:28:15;35.28;;;20.60;;
22922;SDS011;11627;51.322;22.816;2022-10-31T12:36:21;29.20;;;19.20;;
22922;SDS011;11627;51.322;22.816;2022-10-31T12:41:45;30.77;;;19.50;;
22922;SDS011;11627;51.322;22.816;2022-10-31T12:44:30;31.17;;;21.00;;
22922;SDS011;11627;51.322;22.816;2022-10-31T12:50:17;27.83;;;17.25;;
22922;SDS011;11627;51.322;22.816;2022-10-31T12:58:21;26.85;;;17.38;;
22922;SDS011;11627;51.322;22.816;2022-10-31T13:01:12;26.60;;;17.70;;
22922;SDS011;11627;51.322;22.816;2022-10-31T13:03:52;31.80;;;19.35;;
22922;SDS011;11627;51.322;22.816;2022-10-31T13:06:24;29.02;;;18.08;;
22922;SDS011;11627;51.322;22.816;2022-10-31T13:08:56;31.73;;;18.73;;
22922;SDS011;11627;51.322;22.816;2022-10-31T13:11:27;29.67;;;19.35;;
22922;SDS011;11627;51.322;22.816;2022-10-31T13:14:01;28.92;;;19.23;;
22922;SDS011;11627;51.322;22.816;2022-10-31T13:16:41;28.45;;;17.88;;
22922;SDS011;11627;51.322;22.816;2022-10-31T13:19:14;26.17;;;16.40;;
22922;SDS011;11627;51.322;22.816;2022-10-31T13:21:44;31.02;;;17.52;;
22922;SDS011;11627;51.322;22.816;2022-10-31T13:24:25;28.80;;;18.05;;
22922;SDS011;11627;51.322;22.816;2022-10-31T13:26:58;24.67;;;15.98;;
22922;SDS011;11627;51.322;22.816;2022-10-31T13:29:30;27.42;;;18.33;;
22922;SDS011;11627;51.322;22.816;2022-10-31T13:32:03;29.15;;;16.85;;
22922;SDS011;11627;51.322;22.816;2022-10-31T13:34:33;32.97;;;19.15;;
22922;SDS011;11627;51.322;22.816;2022-10-31T13:37:05;30.42;;;18.98;;
22922;SDS011;11627;51.322;22.816;2022-10-31T13:42:34;30.35;;;19.10;;
22922;SDS011;11627;51.322;22.816;2022-10-31T13:45:14;26.95;;;17.20;;
22922;SDS011;11627;51.322;22.816;2022-10-31T13:47:42;28.88;;;18.23;;
22922;SDS011;11627;51.322;22.816;2022-10-31T13:52:47;37.05;;;20.98;;
22922;SDS011;11627;51.322;22.816;2022-10-31T13:55:34;39.92;;;24.75;;
22922;SDS011;11627;51.322;22.816;2022-10-31T13:58:20;40.97;;;24.60;;
22922;SDS011;11627;51.322;22.816;2022-10-31T14:01:49;41.90;;;25.17;;
22922;SDS011;11627;51.322;22.816;2022-10-31T14:03:47;50.50;;;30.52;;
22922;SDS011;11627;51.322;22.816;2022-10-31T14:06:23;59.15;;;33.60;;
22922;SDS011;11627;51.322;22.816;2022-10-31T14:09:04;62.03;;;32.65;;
22922;SDS011;11627;51.322;22.816;2022-10-31T14:11:30;56.78;;;29.65;;
22922;SDS011;11627;51.322;22.816;2022-10-31T14:13:56;59.88;;;33.15;;
22922;SDS011;11627;51.322;22.816;2022-10-31T14:16:23;58.75;;;31.25;;
22922;SDS011;11627;51.322;22.816;2022-10-31T14:19:13;64.18;;;31.65;;
22922;SDS011;11627;51.322;22.816;2022-10-31T14:21:42;55.13;;;28.75;;
22922;SDS011;11627;51.322;22.816;2022-10-31T14:24:13;76.97;;;35.30;;
22922;SDS011;11627;51.322;22.816;2022-10-31T14:26:52;66.63;;;33.75;;
22922;SDS011;11627;51.322;22.816;2022-10-31T14:29:25;76.90;;;38.67;;
22922;SDS011;11627;51.322;22.816;2022-10-31T14:43:28;81.93;;;42.10;;
22922;SDS011;11627;51.322;22.816;2022-10-31T14:46:47;88.70;;;44.22;;
22922;SDS011;11627;51.322;22.816;2022-10-31T14:52:30;69.00;;;36.35;;
22922;SDS011;11627;51.322;22.816;2022-10-31T14:54:57;59.63;;;31.38;;
22922;SDS011;11627;51.322;22.816;2022-10-31T14:57:25;54.53;;;28.65;;
22922;SDS011;11627;51.322;22.816;2022-10-31T15:00:06;50.42;;;25.73;;
22922;SDS011;11627;51.322;22.816;2022-10-31T15:02:46;42.50;;;24.75;;
22922;SDS011;11627;51.322;22.816;2022-10-31T15:05:20;43.50;;;23.90;;
22922;SDS011;11627;51.322;22.816;2022-10-31T15:07:52;43.10;;;24.52;;
22922;SDS011;11627;51.322;22.816;2022-10-31T15:10:29;51.03;;;26.67;;
22922;SDS011;11627;51.322;22.816;2022-10-31T15:13:08;63.45;;;29.95;;
22922;SDS011;11627;51.322;22.816;2022-10-31T15:15:46;65.20;;;30.95;;
22922;SDS011;11627;51.322;22.816;2022-10-31T15:18:16;67.07;;;34.65;;
22922;SDS011;11627;51.322;22.816;2022-10-31T15:20:44;69.65;;;32.72;;
22922;SDS011;11627;51.322;22.816;2022-10-31T15:23:20;61.00;;;30.70;;
22922;SDS011;11627;51.322;22.816;2022-10-31T15:25:49;70.38;;;31.55;;
22922;SDS011;11627;51.322;22.816;2022-10-31T15:28:24;57.38;;;29.08;;
22922;SDS011;11627;51.322;22.816;2022-10-31T15:31:00;52.28;;;27.48;;
22922;SDS011;11627;51.322;22.816;2022-10-31T15:33:30;51.70;;;26.40;;
22922;SDS011;11627;51.322;22.816;2022-10-31T15:36:04;48.45;;;26.00;;
22922;SDS011;11627;51.322;22.816;2022-10-31T15:38:30;46.97;;;25.00;;
22922;SDS011;11627;51.322;22.816;2022-10-31T15:43:34;49.28;;;25.95;;
22922;SDS011;11627;51.322;22.816;2022-10-31T15:46:07;65.78;;;29.25;;
22922;SDS011;11627;51.322;22.816;2022-10-31T15:48:35;64.82;;;30.05;;
22922;SDS011;11627;51.322;22.816;2022-10-31T15:51:01;69.53;;;32.05;;
22922;SDS011;11627;51.322;22.816;2022-10-31T15:54:01;66.05;;;31.60;;
22922;SDS011;11627;51.322;22.816;2022-10-31T15:56:20;66.07;;;29.13;;
22922;SDS011;11627;51.322;22.816;2022-10-31T15:58:49;63.15;;;27.35;;
22922;SDS011;11627;51.322;22.816;2022-10-31T16:01:24;55.63;;;25.80;;
22922;SDS011;11627;51.322;22.816;2022-10-31T16:04:02;49.38;;;25.55;;
22922;SDS011;11627;51.322;22.816;2022-10-31T16:06:30;51.83;;;24.30;;
22922;SDS011;11627;51.322;22.816;2022-10-31T16:08:57;46.92;;;24.75;;
22922;SDS011;11627;51.322;22.816;2022-10-31T16:13:57;42.85;;;22.27;;
22922;SDS011;11627;51.322;22.816;2022-10-31T16:16:47;47.20;;;23.50;;
22922;SDS011;11627;51.322;22.816;2022-10-31T16:22:07;42.22;;;22.75;;
22922;SDS011;11627;51.322;22.816;2022-10-31T16:24:47;43.63;;;22.88;;
22922;SDS011;11627;51.322;22.816;2022-10-31T16:27:23;44.08;;;22.25;;
22922;SDS011;11627;51.322;22.816;2022-10-31T16:29:57;44.58;;;22.58;;